Terminal Aerodrome Forecast
Issued by NWS

Home | Current Version | Previous Version | Text Only | Print | Product List | Glossary On
Versions: 1 2 3 4 5 6 7 8 9 10 11 12 13 14 15 16 17 18 19 20 21
000
FTUS41 KILN 030047 AAA
TAFLUK
TAF AMD
KLUK 030047Z 0301/0324 00000KT P6SM FEW100
     FM030700 00000KT 4SM BR FEW003
     FM030800 00000KT 1SM BR SKC
      TEMPO 0308/0312 1/2SM FG BKN003
     FM031400 VRB03KT P6SM SCT040
     FM031900 32005KT P6SM VCTS BKN035CB=

USA.gov is the U.S. government's official web portal to all federal, state and local government web resources and services.